Time;durP1;ratioP1;P1;durP2;ratioP2;P2;SDS_P1;SDS_P2;PMS_P1;PMS_P2;Temp;Humidity;BMP_temperature;BMP_pressure;BME280_temperature;BME280_humidity;BME280_pressure;Samples;Min_cycle;Max_cycle;Signal;HPM_P1;HPM_P2
2023/06/15 00:00:57;;;;;;;;;;;;;;;17.14;59.83;99800.59;5323611;26;33321;-84
2023/06/15 00:03:25;;;;;;;;;;;;;;;17.16;59.53;99804.00;5305063;26;33859;-83
2023/06/15 00:05:53;;;;;;;;;;;;;;;17.18;59.67;99806.56;5305385;26;33452;-83
2023/06/15 00:08:21;;;;;;;;;;;;;;;17.25;59.22;99800.69;5286979;26;32874;-83
2023/06/15 00:10:48;;;;;;;;;;;;;;;17.22;59.33;99808.06;5305269;26;33492;-83
2023/06/15 00:13:16;;;;;;;;;;;;;;;17.10;59.69;99809.78;5323404;26;34103;-83
2023/06/15 00:15:43;;;;;;;;;;;;;;;17.14;59.74;99797.94;5324114;26;33409;-83
2023/06/15 00:18:12;;;;;;;;;;;;;;;17.08;59.99;99804.53;5325761;26;34967;-83
2023/06/15 00:20:39;;;;;;;;;;;;;;;17.14;59.66;99801.47;5289469;26;33077;-84
2023/06/15 00:23:08;;;;;;;;;;;;;;;17.04;59.78;99800.41;5325658;26;34034;-84
2023/06/15 00:25:37;;;;;;;;;;;;;;;17.11;59.74;99796.31;5307697;26;32112;-83
2023/06/15 00:28:04;;;;;;;;;;;;;;;17.06;59.55;99798.47;5307073;26;33955;-85
2023/06/15 00:30:32;;;;;;;;;;;;;;;17.19;59.36;99802.94;5325812;26;33169;-85
2023/06/15 00:32:59;;;;;;;;;;;;;;;17.03;59.75;99796.00;5307800;26;34302;-85
2023/06/15 00:35:27;;;;;;;;;;;;;;;16.97;59.56;99796.44;5307649;26;32499;-85
2023/06/15 00:37:55;;;;;;;;;;;;;;;16.94;59.79;99793.97;5325830;26;34105;-85
2023/06/15 00:40:23;;;;;;;;;;;;;;;17.06;59.58;99802.97;5289613;26;34180;-84
2023/06/15 00:42:50;;;;;;;;;;;;;;;16.96;59.86;99791.22;5307372;26;33821;-84
2023/06/15 00:45:18;;;;;;;;;;;;;;;16.93;60.05;99794.94;5325783;26;33410;-85
2023/06/15 00:47:52;;;;;;;;;;;;;;;16.94;59.99;99804.66;5326335;26;33838;-84
2023/06/15 00:50:21;;;;;;;;;;;;;;;16.98;59.68;99795.47;5325820;26;34253;-84
2023/06/15 00:52:49;;;;;;;;;;;;;;;16.98;59.91;99800.81;5325657;26;35085;-84
2023/06/15 00:55:17;;;;;;;;;;;;;;;16.78;60.28;99809.34;5325213;26;34039;-84
2023/06/15 00:57:49;;;;;;;;;;;;;;;16.92;59.92;99803.06;5307474;26;33821;-84
2023/06/15 01:00:18;;;;;;;;;;;;;;;16.87;60.02;99798.06;5308189;26;35174;-84
2023/06/15 01:02:48;;;;;;;;;;;;;;;16.98;59.81;99794.63;5307542;26;34201;-84
2023/06/15 01:05:17;;;;;;;;;;;;;;;16.91;59.82;99801.38;5308419;26;33761;-84
2023/06/15 01:07:46;;;;;;;;;;;;;;;16.80;60.45;99804.75;5307412;26;34364;-84
2023/06/15 01:10:17;;;;;;;;;;;;;;;16.76;60.57;99792.59;5307153;26;34464;-84
2023/06/15 01:12:45;;;;;;;;;;;;;;;16.78;60.45;99788.88;5307165;26;34486;-85
2023/06/15 01:15:13;;;;;;;;;;;;;;;16.86;60.12;99793.69;5307556;26;34158;-85
2023/06/15 01:17:45;;;;;;;;;;;;;;;16.76;60.61;99787.25;5307050;26;34624;-85
2023/06/15 01:20:18;;;;;;;;;;;;;;;16.73;60.12;99792.81;5307161;26;33098;-85
2023/06/15 01:23:05;;;;;;;;;;;;;;;16.64;60.53;99786.28;5306650;26;33404;-85
2023/06/15 01:25:49;;;;;;;;;;;;;;;16.67;60.44;99782.56;5325670;26;32674;-85
2023/06/15 01:28:20;;;;;;;;;;;;;;;16.60;60.09;99790.13;5343646;26;33917;-85
2023/06/15 01:30:49;;;;;;;;;;;;;;;16.44;60.92;99782.31;5306378;26;35566;-85
2023/06/15 01:33:16;;;;;;;;;;;;;;;16.54;60.58;99775.41;5324262;26;33761;-85
2023/06/15 01:35:44;;;;;;;;;;;;;;;16.46;61.08;99783.06;5305551;26;33196;-85
2023/06/15 01:38:11;;;;;;;;;;;;;;;16.59;60.46;99789.25;5324109;26;34689;-85
2023/06/15 01:40:40;;;;;;;;;;;;;;;16.56;60.44;99786.78;5305638;26;33075;-85
2023/06/15 01:43:12;;;;;;;;;;;;;;;16.51;60.63;99785.41;5324125;26;34217;-85
2023/06/15 01:45:41;;;;;;;;;;;;;;;16.38;60.78;99782.75;5287991;26;34312;-85
2023/06/15 01:48:08;;;;;;;;;;;;;;;16.43;60.87;99783.28;5324314;26;34111;-85
2023/06/15 01:50:36;;;;;;;;;;;;;;;16.38;60.80;99785.41;5324098;26;33359;-85
2023/06/15 01:53:04;;;;;;;;;;;;;;;16.43;60.97;99783.28;5323868;26;34036;-85
2023/06/15 01:55:32;;;;;;;;;;;;;;;16.52;60.38;99777.34;5305570;26;32156;-85
2023/06/15 01:57:59;;;;;;;;;;;;;;;16.55;60.41;99781.59;5305157;26;34097;-85
2023/06/15 02:00:28;;;;;;;;;;;;;;;16.52;60.47;99784.44;5324130;26;34383;-85
2023/06/15 02:02:57;;;;;;;;;;;;;;;16.35;61.03;99783.78;5287887;26;32577;-85
2023/06/15 02:05:24;;;;;;;;;;;;;;;16.39;60.77;99785.31;5287032;26;32086;-85
2023/06/15 02:07:52;;;;;;;;;;;;;;;16.35;60.89;99782.94;5323743;26;33957;-85
2023/06/15 02:10:22;;;;;;;;;;;;;;;16.33;61.17;99788.37;5305921;26;33701;-85
2023/06/15 02:12:49;;;;;;;;;;;;;;;16.17;61.28;99787.69;5324752;26;33962;-85
2023/06/15 02:15:18;;;;;;;;;;;;;;;16.16;61.38;99790.47;5306568;26;34129;-84
2023/06/15 02:17:46;;;;;;;;;;;;;;;16.32;60.39;99786.66;5305756;26;33203;-84
2023/06/15 02:20:15;;;;;;;;;;;;;;;16.34;60.43;99786.56;5306143;26;33079;-84
2023/06/15 02:22:44;;;;;;;;;;;;;;;16.23;61.17;99786.41;5306298;26;33891;-85
2023/06/15 02:25:12;;;;;;;;;;;;;;;16.21;61.39;99794.53;5287949;26;33283;-83
2023/06/15 02:27:39;;;;;;;;;;;;;;;16.06;61.49;99799.06;5305661;26;34560;-83
2023/06/15 02:30:07;;;;;;;;;;;;;;;16.11;61.25;99788.97;5323577;26;35161;-84
2023/06/15 02:32:42;;;;;;;;;;;;;;;16.19;61.19;99784.91;5305418;26;34445;-84
2023/06/15 02:35:10;;;;;;;;;;;;;;;16.10;61.27;99789.06;5306009;26;33637;-84
2023/06/15 02:37:38;;;;;;;;;;;;;;;15.99;61.62;99788.91;5323764;26;34376;-83
2023/06/15 02:40:06;;;;;;;;;;;;;;;16.02;61.77;99794.91;5324237;26;34810;-83
2023/06/15 02:42:35;;;;;;;;;;;;;;;15.96;61.91;99792.66;5306050;26;33059;-83
2023/06/15 02:45:03;;;;;;;;;;;;;;;16.04;61.24;99789.47;5306076;26;33801;-83
2023/06/15 02:47:30;;;;;;;;;;;;;;;15.99;61.54;99788.91;5323895;26;33544;-83
2023/06/15 02:49:59;;;;;;;;;;;;;;;16.01;61.44;99793.19;5324168;26;33786;-83
2023/06/15 02:52:30;;;;;;;;;;;;;;;15.94;61.65;99791.88;5323435;26;34054;-83
2023/06/15 02:54:58;;;;;;;;;;;;;;;15.81;61.93;99791.00;5324859;26;33658;-83
2023/06/15 02:57:27;;;;;;;;;;;;;;;15.86;61.77;99783.56;5304948;26;34243;-83
2023/06/15 02:59:58;;;;;;;;;;;;;;;15.82;62.10;99792.72;5306509;26;34718;-83
2023/06/15 03:02:27;;;;;;;;;;;;;;;15.92;61.64;99788.47;5323075;26;33754;-83
2023/06/15 03:04:57;;;;;;;;;;;;;;;15.98;61.28;99793.41;5323989;26;33484;-83
2023/06/15 03:07:26;;;;;;;;;;;;;;;15.97;61.67;99780.19;5306485;26;33549;-85
2023/06/15 03:09:54;;;;;;;;;;;;;;;15.91;61.76;99791.25;5324562;26;33545;-85
2023/06/15 03:12:22;;;;;;;;;;;;;;;16.00;61.35;99791.50;5305689;26;33329;-85
2023/06/15 03:14:53;;;;;;;;;;;;;;;16.12;60.71;99790.66;5305120;26;33695;-85
2023/06/15 03:17:22;;;;;;;;;;;;;;;16.06;60.99;99785.75;5306293;26;33129;-86
2023/06/15 03:19:49;;;;;;;;;;;;;;;16.07;61.25;99791.94;5323728;26;34111;-86
2023/06/15 03:22:17;;;;;;;;;;;;;;;15.89;61.65;99788.66;5305398;26;32823;-86
2023/06/15 03:24:45;;;;;;;;;;;;;;;15.94;61.95;99789.22;5305278;26;32385;-86
2023/06/15 03:27:13;;;;;;;;;;;;;;;16.05;61.67;99792.03;5305266;26;32926;-86
2023/06/15 03:29:41;;;;;;;;;;;;;;;15.98;62.06;99790.72;5287189;26;33483;-86
2023/06/15 03:32:09;;;;;;;;;;;;;;;16.13;61.79;99797.69;5305271;26;32907;-85
2023/06/15 03:34:37;;;;;;;;;;;;;;;16.17;61.83;99793.03;5323865;26;32601;-85
2023/06/15 03:37:05;;;;;;;;;;;;;;;16.18;62.36;99800.06;5305432;26;32878;-85
2023/06/15 03:39:33;;;;;;;;;;;;;;;16.08;62.52;99805.13;5305807;26;33292;-85
2023/06/15 03:42:01;;;;;;;;;;;;;;;16.44;61.75;99800.97;5287138;26;32828;-85
2023/06/15 03:44:29;;;;;;;;;;;;;;;16.54;61.62;99812.72;5325029;26;33061;-85
2023/06/15 03:46:57;;;;;;;;;;;;;;;16.48;62.03;99806.97;5324425;26;34131;-86
2023/06/15 03:49:24;;;;;;;;;;;;;;;16.54;62.26;99812.72;5305716;26;34360;-85
2023/06/15 03:51:52;;;;;;;;;;;;;;;16.75;61.94;99805.06;5287377;26;34012;-85
2023/06/15 03:54:20;;;;;;;;;;;;;;;16.86;61.54;99802.53;5305891;26;33877;-85
2023/06/15 03:56:49;;;;;;;;;;;;;;;17.13;60.93;99804.22;5305632;26;33351;-86
2023/06/15 03:59:16;;;;;;;;;;;;;;;17.19;61.06;99803.81;5305292;26;33466;-85
2023/06/15 04:01:44;;;;;;;;;;;;;;;17.20;61.23;99804.66;5305588;26;33236;-87
2023/06/15 04:04:14;;;;;;;;;;;;;;;17.25;61.46;99800.69;5323760;26;33477;-87
2023/06/15 04:06:52;;;;;;;;;;;;;;;17.52;60.75;99805.00;5306061;26;33227;-86
2023/06/15 04:09:21;;;;;;;;;;;;;;;17.66;60.30;99804.88;5325005;26;34313;-86
2023/06/15 04:11:48;;;;;;;;;;;;;;;17.73;60.33;99811.47;5305436;26;33592;-86
2023/06/15 04:14:17;;;;;;;;;;;;;;;17.78;60.50;99805.81;5323366;26;32555;-85
2023/06/15 04:16:46;;;;;;;;;;;;;;;18.24;58.93;99805.06;5306342;26;34124;-85
2023/06/15 04:19:14;;;;;;;;;;;;;;;18.40;58.46;99810.94;5283356;27;33507;-86
2023/06/15 04:21:41;;;;;;;;;;;;;;;18.36;58.65;99809.47;5300783;27;33070;-86
2023/06/15 04:24:09;;;;;;;;;;;;;;;18.51;58.62;99807.44;5283794;27;32525;-86
2023/06/15 04:26:37;;;;;;;;;;;;;;;18.58;57.96;99808.69;5301473;27;34067;-86
2023/06/15 04:29:04;;;;;;;;;;;;;;;18.64;57.26;99817.09;5283112;27;33319;-87
2023/06/15 04:31:33;;;;;;;;;;;;;;;18.97;56.02;99815.47;5301620;27;33885;-85
2023/06/15 04:34:04;;;;;;;;;;;;;;;19.13;54.69;99813.31;5266343;27;32539;-86
2023/06/15 04:36:34;;;;;;;;;;;;;;;19.14;55.08;99817.69;5283268;27;32954;-85
2023/06/15 04:39:03;;;;;;;;;;;;;;;19.26;55.01;99818.53;5265647;27;33959;-86
2023/06/15 04:41:39;;;;;;;;;;;;;;;19.05;56.49;99818.41;5265353;27;32909;-86
2023/06/15 04:44:07;;;;;;;;;;;;;;;19.14;56.57;99819.53;5283438;27;32453;-86
2023/06/15 04:46:39;;;;;;;;;;;;;;;19.14;56.65;99822.19;5282915;27;34930;-86
2023/06/15 04:49:09;;;;;;;;;;;;;;;19.44;54.63;99826.94;5302701;27;34533;-86
2023/06/15 04:51:38;;;;;;;;;;;;;;;19.40;55.28;99828.16;5321086;27;34138;-86
2023/06/15 04:54:06;;;;;;;;;;;;;;;19.49;55.45;99818.53;5283408;27;32471;-86
2023/06/15 04:56:34;;;;;;;;;;;;;;;19.58;54.34;99829.34;5283325;27;33801;-84
2023/06/15 04:59:02;;;;;;;;;;;;;;;19.53;54.20;99826.19;5300744;27;33879;-84
2023/06/15 05:01:29;;;;;;;;;;;;;;;19.72;53.74;99830.09;5264893;27;34154;-84
2023/06/15 05:03:58;;;;;;;;;;;;;;;19.80;53.70;99827.66;5266044;27;33454;-84
2023/06/15 05:06:26;;;;;;;;;;;;;;;20.05;53.38;99826.50;5283601;27;33849;-85
2023/06/15 05:08:54;;;;;;;;;;;;;;;20.17;53.17;99820.94;5321697;27;34424;-84
2023/06/15 05:11:22;;;;;;;;;;;;;;;20.18;53.41;99822.66;5283159;27;32962;-85
2023/06/15 05:13:50;;;;;;;;;;;;;;;20.10;52.98;99818.91;5282939;27;32631;-83
2023/06/15 05:16:18;;;;;;;;;;;;;;;20.10;52.19;99825.13;5302516;27;34837;-84
2023/06/15 05:18:46;;;;;;;;;;;;;;;20.49;51.06;99830.84;5301774;27;33648;-85
2023/06/15 05:21:14;;;;;;;;;;;;;;;20.30;51.61;99836.88;5301508;27;34289;-85
2023/06/15 05:23:41;;;;;;;;;;;;;;;20.57;50.59;99839.09;5301595;27;33245;-86
2023/06/15 05:26:10;;;;;;;;;;;;;;;20.60;48.24;99838.81;5284093;27;34257;-85
2023/06/15 05:28:56;;;;;;;;;;;;;;;20.96;47.25;99844.72;5290383;27;34194;-85
2023/06/15 05:31:24;;;;;;;;;;;;;;;21.20;47.34;99842.59;5284354;27;34042;-86
2023/06/15 05:33:52;;;;;;;;;;;;;;;21.32;48.52;99839.88;5283680;27;33227;-85
2023/06/15 05:36:21;;;;;;;;;;;;;;;21.50;46.72;99843.59;5284043;27;34231;-85
2023/06/15 05:38:52;;;;;;;;;;;;;;;21.46;47.09;99844.88;5284492;27;34810;-85
2023/06/15 05:41:19;;;;;;;;;;;;;;;21.40;47.51;99842.72;5321178;27;34113;-85
2023/06/15 05:43:47;;;;;;;;;;;;;;;21.46;47.83;99852.94;5256783;27;32082;-85
2023/06/15 05:46:15;;;;;;;;;;;;;;;21.52;48.40;99852.38;5302943;27;33695;-85
2023/06/15 05:48:42;;;;;;;;;;;;;;;21.48;49.46;99853.63;5283917;27;33712;-85
2023/06/15 05:51:10;;;;;;;;;;;;;;;21.43;49.93;99855.87;5265262;27;33211;-85
2023/06/15 05:53:38;;;;;;;;;;;;;;;21.55;49.99;99854.78;5301389;27;34377;-84
2023/06/15 05:56:06;;;;;;;;;;;;;;;21.80;48.28;99855.31;5283194;27;33885;-84
2023/06/15 05:58:34;;;;;;;;;;;;;;;21.77;47.85;99863.63;5283280;27;33433;-84
2023/06/15 06:01:01;;;;;;;;;;;;;;;21.67;48.59;99861.75;5283539;27;33980;-85
2023/06/15 06:03:29;;;;;;;;;;;;;;;21.88;48.06;99858.97;5302071;27;33258;-84
2023/06/15 06:05:59;;;;;;;;;;;;;;;21.66;48.44;99865.44;5284835;27;33931;-85
2023/06/15 06:08:27;;;;;;;;;;;;;;;21.67;48.52;99861.75;5283009;27;32851;-84
2023/06/15 06:10:54;;;;;;;;;;;;;;;21.84;47.93;99862.97;5301980;27;34911;-84
2023/06/15 06:13:23;;;;;;;;;;;;;;;21.88;47.51;99860.81;5284629;27;33638;-85
2023/06/15 06:15:50;;;;;;;;;;;;;;;22.14;47.98;99870.13;5283845;27;34236;-85
2023/06/15 06:18:18;;;;;;;;;;;;;;;21.87;48.83;99870.72;5283281;27;34255;-85
2023/06/15 06:20:46;;;;;;;;;;;;;;;21.72;47.98;99864.87;5283230;27;33565;-85
2023/06/15 06:23:13;;;;;;;;;;;;;;;21.87;48.01;99867.19;5284049;27;34074;-85
2023/06/15 06:25:41;;;;;;;;;;;;;;;22.27;47.45;99859.09;5284641;27;34141;-85
2023/06/15 06:28:11;;;;;;;;;;;;;;;22.22;47.04;99864.06;5266127;27;32757;-85
2023/06/15 06:30:38;;;;;;;;;;;;;;;22.58;46.50;99862.50;5284008;27;34224;-84
2023/06/15 06:33:06;;;;;;;;;;;;;;;22.47;46.81;99868.03;5284307;27;33514;-85
2023/06/15 06:35:33;;;;;;;;;;;;;;;22.81;46.16;99878.34;5302055;27;34293;-85
2023/06/15 06:38:01;;;;;;;;;;;;;;;23.04;44.92;99863.59;5284282;27;33262;-85
2023/06/15 06:40:29;;;;;;;;;;;;;;;23.02;44.91;99859.34;5302347;27;34197;-85
2023/06/15 06:42:57;;;;;;;;;;;;;;;23.45;44.48;99861.47;5284452;27;32728;-85
2023/06/15 06:45:24;;;;;;;;;;;;;;;23.71;45.44;99864.37;5284171;27;33109;-85
2023/06/15 06:47:56;;;;;;;;;;;;;;;23.38;44.13;99868.47;5285072;27;33492;-84
2023/06/15 06:50:24;;;;;;;;;;;;;;;23.38;44.32;99860.38;5283996;27;34243;-85
2023/06/15 06:52:51;;;;;;;;;;;;;;;23.56;44.61;99863.16;5284063;27;33120;-85
2023/06/15 06:55:19;;;;;;;;;;;;;;;24.10;43.81;99867.69;5283901;27;33816;-85
2023/06/15 06:57:47;;;;;;;;;;;;;;;23.89;42.25;99859.03;5293627;27;33582;-85
2023/06/15 07:00:15;;;;;;;;;;;;;;;24.43;42.32;99863.50;5301992;27;34186;-85
2023/06/15 07:02:43;;;;;;;;;;;;;;;24.60;42.93;99853.72;5320461;27;32893;-85
2023/06/15 07:05:11;;;;;;;;;;;;;;;24.44;42.39;99853.56;5302149;27;34303;-85
2023/06/15 07:07:39;;;;;;;;;;;;;;;24.43;41.59;99859.97;5283241;27;33487;-85
2023/06/15 07:10:07;;;;;;;;;;;;;;;24.23;41.71;99851.97;5284210;27;34032;-85
2023/06/15 07:12:34;;;;;;;;;;;;;;;24.61;40.01;99850.00;5283672;27;32379;-84
2023/06/15 07:15:03;;;;;;;;;;;;;;;24.19;40.86;99850.59;5320471;27;34173;-85
2023/06/15 07:17:31;;;;;;;;;;;;;;;24.12;40.68;99848.66;5320404;27;34849;-84
2023/06/15 07:19:59;;;;;;;;;;;;;;;24.04;40.90;99846.72;5301643;27;34048;-84
2023/06/15 07:22:26;;;;;;;;;;;;;;;24.65;41.39;99850.56;5319656;27;33132;-84
2023/06/15 07:24:54;;;;;;;;;;;;;;;25.06;40.84;99848.13;5320184;27;33942;-84
2023/06/15 07:27:22;;;;;;;;;;;;;;;25.16;40.22;99855.19;5301891;27;32707;-85
2023/06/15 07:29:49;;;;;;;;;;;;;;;24.90;38.55;99848.87;5319683;27;34350;-84
2023/06/15 07:32:17;;;;;;;;;;;;;;;25.32;37.72;99840.06;5302253;27;33531;-84
2023/06/15 07:34:44;;;;;;;;;;;;;;;25.47;39.19;99844.69;5302099;27;33066;-84
2023/06/15 07:37:12;;;;;;;;;;;;;;;25.20;39.32;99839.47;5301391;27;34012;-84
2023/06/15 07:39:40;;;;;;;;;;;;;;;25.39;37.63;99841.09;5301824;27;34255;-85
2023/06/15 07:42:17;;;;;;;;;;;;;;;25.40;37.25;99840.06;5320891;27;34177;-84
2023/06/15 07:44:44;;;;;;;;;;;;;;;25.87;36.38;99826.09;5272481;27;33190;-85
2023/06/15 07:47:14;;;;;;;;;;;;;;;26.12;38.30;99830.59;5302050;27;33229;-84
2023/06/15 07:49:41;;;;;;;;;;;;;;;26.04;37.00;99825.16;5320060;27;33558;-84
2023/06/15 07:52:15;;;;;;;;;;;;;;;26.09;38.49;99830.91;5302432;27;32203;-85
2023/06/15 07:54:42;;;;;;;;;;;;;;;26.34;36.51;99817.41;5319176;27;34231;-84
2023/06/15 07:57:10;;;;;;;;;;;;;;;26.19;36.83;99819.94;5319073;27;34212;-85
2023/06/15 07:59:38;;;;;;;;;;;;;;;26.08;36.56;99829.22;5301393;27;32641;-85
2023/06/15 08:02:05;;;;;;;;;;;;;;;26.08;36.19;99826.50;5320204;27;33137;-84
2023/06/15 08:04:35;;;;;;;;;;;;;;;26.01;36.64;99818.19;5320053;27;32834;-83
2023/06/15 08:07:02;;;;;;;;;;;;;;;26.16;35.97;99826.53;5300714;27;34947;-84
2023/06/15 08:09:30;;;;;;;;;;;;;;;26.09;35.97;99825.50;5283570;27;32961;-84
2023/06/15 08:11:58;;;;;;;;;;;;;;;26.24;35.69;99823.81;5283728;27;33047;-83
2023/06/15 08:14:25;;;;;;;;;;;;;;;26.39;34.39;99823.16;5319415;27;33747;-83
2023/06/15 08:16:53;;;;;;;;;;;;;;;26.66;34.24;99822.00;5301281;27;34950;-83
2023/06/15 08:19:20;;;;;;;;;;;;;;;26.69;34.32;99827.94;5320154;27;34251;-84
2023/06/15 08:21:47;;;;;;;;;;;;;;;26.48;36.27;99827.59;5320164;27;33038;-84
2023/06/15 08:24:16;;;;;;;;;;;;;;;26.73;37.70;99825.72;5319885;27;34077;-84
2023/06/15 08:26:44;;;;;;;;;;;;;;;26.92;36.06;99822.69;5319412;27;34131;-84
2023/06/15 08:29:11;;;;;;;;;;;;;;;27.17;35.29;99818.06;5319030;27;34322;-84
2023/06/15 08:31:50;;;;;;;;;;;;;;;27.16;34.80;99827.22;5319817;27;32312;-84
2023/06/15 08:34:18;;;;;;;;;;;;;;;27.10;33.87;99824.34;5301143;27;33073;-84
2023/06/15 08:36:46;;;;;;;;;;;;;;;27.05;30.23;99822.12;5318095;27;35163;-84
2023/06/15 08:39:31;;;;;;;;;;;;;;;26.87;31.40;99824.19;5302319;27;34173;-84
2023/06/15 08:41:58;;;;;;;;;;;;;;;27.03;32.64;99818.75;5319421;27;33367;-84
2023/06/15 08:44:26;;;;;;;;;;;;;;;27.43;33.67;99819.69;5320515;27;34110;-84
2023/06/15 08:46:56;;;;;;;;;;;;;;;26.90;32.23;99821.16;5301693;27;33084;-84
2023/06/15 08:49:24;;;;;;;;;;;;;;;27.44;31.15;99826.78;5302395;27;34164;-84
2023/06/15 08:51:51;;;;;;;;;;;;;;;27.49;31.56;99819.00;5321858;27;34006;-85
2023/06/15 08:54:23;;;;;;;;;;;;;;;27.95;30.00;99813.69;5302295;27;32905;-84
2023/06/15 08:56:51;;;;;;;;;;;;;;;28.25;30.90;99812.84;5302326;27;34991;-84
2023/06/15 08:59:18;;;;;;;;;;;;;;;28.30;32.61;99807.69;5301910;27;34149;-85
2023/06/15 09:01:46;;;;;;;;;;;;;;;28.06;33.27;99800.56;5320973;27;34102;-84
2023/06/15 09:04:13;;;;;;;;;;;;;;;28.18;33.53;99803.69;5302332;27;34404;-84
2023/06/15 09:06:41;;;;;;;;;;;;;;;28.08;30.33;99794.97;5302291;27;34541;-85
2023/06/15 09:09:09;;;;;;;;;;;;;;;28.22;31.46;99805.03;5302496;27;33482;-84
2023/06/15 09:11:41;;;;;;;;;;;;;;;27.96;33.15;99794.50;5301055;27;33434;-84
2023/06/15 09:14:09;;;;;;;;;;;;;;;27.99;30.50;99799.59;5302570;27;34048;-83
2023/06/15 09:16:37;;;;;;;;;;;;;;;28.03;32.87;99805.50;5300943;27;34364;-84
2023/06/15 09:19:11;;;;;;;;;;;;;;;28.14;32.16;99796.09;5319213;27;34506;-83
2023/06/15 09:21:41;;;;;;;;;;;;;;;28.23;31.81;99797.72;5302494;27;33793;-84
2023/06/15 09:24:18;;;;;;;;;;;;;;;28.41;31.60;99794.75;5320787;27;34276;-83
2023/06/15 09:26:53;;;;;;;;;;;;;;;28.39;28.64;99794.06;5304060;27;33448;-84
2023/06/15 09:29:28;;;;;;;;;;;;;;;28.64;26.33;99792.84;5285743;27;32822;-83
2023/06/15 09:31:56;;;;;;;;;;;;;;;28.33;28.40;99788.31;5319620;27;33132;-83
2023/06/15 09:34:23;;;;;;;;;;;;;;;28.29;27.79;99789.69;5300982;27;33996;-83
2023/06/15 09:36:51;;;;;;;;;;;;;;;28.76;28.61;99788.63;5320161;27;33807;-84
2023/06/15 09:39:22;;;;;;;;;;;;;;;28.27;29.05;99786.34;5319730;27;34432;-83
2023/06/15 09:41:53;;;;;;;;;;;;;;;28.50;27.95;99790.94;5319317;27;32768;-84
2023/06/15 09:44:22;;;;;;;;;;;;;;;28.74;28.09;99782.56;5302033;27;33350;-83
2023/06/15 09:46:51;;;;;;;;;;;;;;;28.23;27.46;99776.00;5300155;27;34099;-84
2023/06/15 09:49:20;;;;;;;;;;;;;;;29.00;28.94;99776.69;5301672;27;33180;-84
2023/06/15 09:51:49;;;;;;;;;;;;;;;29.12;28.57;99776.25;5282877;27;32599;-84
2023/06/15 09:54:17;;;;;;;;;;;;;;;29.36;27.00;99772.41;5321370;27;34284;-84
2023/06/15 09:56:45;;;;;;;;;;;;;;;29.39;26.28;99772.00;5266321;27;34384;-83
2023/06/15 09:59:14;;;;;;;;;;;;;;;29.44;27.37;99769.59;5285640;27;34362;-84
2023/06/15 10:01:45;;;;;;;;;;;;;;;29.26;27.73;99770.81;5285241;27;33794;-84
2023/06/15 10:04:13;;;;;;;;;;;;;;;29.41;27.72;99769.94;5301995;27;34910;-84
2023/06/15 10:06:41;;;;;;;;;;;;;;;28.48;27.64;99766.66;5301829;27;33806;-84
2023/06/15 10:09:09;;;;;;;;;;;;;;;29.12;27.08;99762.66;5264959;27;32868;-84
2023/06/15 10:11:38;;;;;;;;;;;;;;;29.32;25.75;99764.59;5284731;27;33028;-83
2023/06/15 10:14:27;;;;;;;;;;;;;;;29.00;25.25;99765.84;5283712;27;33460;-84
2023/06/15 10:16:57;;;;;;;;;;;;;;;28.96;24.72;99764.53;5283840;27;34426;-84
2023/06/15 10:19:25;;;;;;;;;;;;;;;28.52;27.83;99751.69;5301264;27;32916;-84
2023/06/15 10:21:52;;;;;;;;;;;;;;;29.44;25.81;99755.97;5302094;27;33714;-84
2023/06/15 10:24:21;;;;;;;;;;;;;;;29.78;25.58;99756.22;5283711;27;32522;-84
2023/06/15 10:26:48;;;;;;;;;;;;;;;29.60;26.94;99755.78;5284164;27;33911;-84
2023/06/15 10:29:16;;;;;;;;;;;;;;;29.78;24.67;99755.38;5302068;27;34147;-84
2023/06/15 10:31:49;;;;;;;;;;;;;;;29.41;25.27;99761.78;5301419;27;32142;-84
2023/06/15 10:34:35;;;;;;;;;;;;;;;29.56;24.34;99762.63;5284009;27;34973;-84
2023/06/15 10:37:05;;;;;;;;;;;;;;;29.74;23.87;99756.78;5302272;27;34250;-84
2023/06/15 10:39:37;;;;;;;;;;;;;;;29.93;24.66;99760.75;5301739;27;34056;-84
2023/06/15 10:42:08;;;;;;;;;;;;;;;29.89;24.20;99757.56;5266038;27;32848;-84
2023/06/15 10:44:35;;;;;;;;;;;;;;;29.90;24.04;99756.53;5265929;27;32630;-85
2023/06/15 10:47:12;;;;;;;;;;;;;;;29.73;24.43;99750.50;5283399;27;34193;-84
2023/06/15 10:49:47;;;;;;;;;;;;;;;30.44;23.24;99744.31;5301796;27;34133;-84
2023/06/15 10:52:14;;;;;;;;;;;;;;;29.96;23.05;99754.91;5283926;27;33477;-83
2023/06/15 10:54:43;;;;;;;;;;;;;;;30.08;22.32;99750.66;5282962;27;33970;-84
2023/06/15 10:57:10;;;;;;;;;;;;;;;29.17;24.48;99747.47;5301109;27;33743;-83
2023/06/15 10:59:38;;;;;;;;;;;;;;;29.74;23.33;99743.19;5282729;27;33938;-84
2023/06/15 11:02:25;;;;;;;;;;;;;;;30.26;23.35;99744.78;5301731;27;32204;-84
2023/06/15 11:04:52;;;;;;;;;;;;;;;30.43;23.13;99738.00;5283217;27;32687;-84
2023/06/15 11:07:27;;;;;;;;;;;;;;;30.25;23.74;99733.06;5264292;27;33940;-83
2023/06/15 11:09:57;;;;;;;;;;;;;;;30.64;23.32;99742.59;5264182;27;34980;-84
2023/06/15 11:12:41;;;;;;;;;;;;;;;30.04;25.19;99746.62;5282788;27;33686;-84
2023/06/15 11:15:37;;;;;;;;;;;;;;;30.38;24.80;99742.34;5242226;27;32762;-84
2023/06/15 11:18:25;;;;;;;;;;;;;;;30.05;24.89;99729.25;5239281;27;33933;-83
2023/06/15 11:20:54;;;;;;;;;;;;;;;30.06;24.03;99741.84;5221488;27;33344;-82
2023/06/15 11:23:23;;;;;;;;;;;;;;;30.53;23.98;99743.13;5274186;27;32942;-83
2023/06/15 11:26:01;;;;;;;;;;;;;;;30.21;23.16;99750.81;5241914;27;34986;-83
2023/06/15 11:28:33;;;;;;;;;;;;;;;29.88;23.20;99736.84;5238605;27;33813;-82
2023/06/15 11:31:06;;;;;;;;;;;;;;;29.56;22.64;99746.31;5238936;27;34209;-83
2023/06/15 11:33:36;;;;;;;;;;;;;;;29.43;23.94;99743.41;5256018;27;33286;-83
2023/06/15 11:36:07;;;;;;;;;;;;;;;29.64;23.12;99737.22;5256655;27;33666;-83
2023/06/15 11:38:36;;;;;;;;;;;;;;;30.18;23.46;99736.75;5256274;27;34297;-83
2023/06/15 11:41:04;;;;;;;;;;;;;;;30.44;22.52;99741.59;5238575;27;34022;-83
2023/06/15 11:43:36;;;;;;;;;;;;;;;30.04;20.78;99733.84;5255856;27;34099;-83
2023/06/15 11:46:06;;;;;;;;;;;;;;;30.52;21.45;99734.09;5275091;27;33544;-83
2023/06/15 11:48:34;;;;;;;;;;;;;;;30.60;20.18;99735.84;5282119;27;33309;-84
2023/06/15 11:51:01;;;;;;;;;;;;;;;30.49;21.15;99728.22;5300725;27;33931;-84
2023/06/15 11:53:28;;;;;;;;;;;;;;;30.56;20.05;99723.66;5281309;27;32779;-84
2023/06/15 11:55:56;;;;;;;;;;;;;;;29.71;18.76;99721.78;5282266;27;34294;-84
2023/06/15 11:58:23;;;;;;;;;;;;;;;30.01;19.70;99715.19;5282023;27;35128;-82
2023/06/15 12:00:51;;;;;;;;;;;;;;;30.39;21.15;99716.81;5301044;27;33674;-81
2023/06/15 12:03:19;;;;;;;;;;;;;;;30.69;18.37;99717.47;5282461;27;32510;-82
2023/06/15 12:05:55;;;;;;;;;;;;;;;30.24;19.51;99714.16;5282635;27;33343;-84
2023/06/15 12:08:25;;;;;;;;;;;;;;;29.36;21.03;99699.81;5281394;27;33401;-82
2023/06/15 12:11:08;;;;;;;;;;;;;;;30.03;19.36;99710.38;5281966;27;33352;-83
2023/06/15 12:13:39;;;;;;;;;;;;;;;29.87;19.87;99699.78;5296205;27;34277;-82
2023/06/15 12:16:07;;;;;;;;;;;;;;;29.98;18.33;99698.41;5261413;27;33595;-83
2023/06/15 12:18:38;;;;;;;;;;;;;;;29.70;20.27;99701.91;5300967;27;34196;-83
2023/06/15 12:21:06;;;;;;;;;;;;;;;29.51;19.61;99695.16;5263711;27;33535;-83
2023/06/15 12:23:37;;;;;;;;;;;;;;;29.79;18.31;99689.84;5300174;27;33894;-83
2023/06/15 12:26:06;;;;;;;;;;;;;;;30.30;18.69;99692.44;5282888;27;33902;-83
2023/06/15 12:28:33;;;;;;;;;;;;;;;30.50;18.10;99689.03;5299407;27;33442;-83
2023/06/15 12:31:03;;;;;;;;;;;;;;;30.31;19.38;99694.13;5262925;27;34857;-83
2023/06/15 12:33:42;;;;;;;;;;;;;;;30.54;18.98;99693.03;5319015;27;33545;-83
2023/06/15 12:36:10;;;;;;;;;;;;;;;30.37;18.02;99687.03;5282945;27;33340;-85
2023/06/15 12:38:42;;;;;;;;;;;;;;;30.05;18.62;99688.41;5282891;27;34111;-84
2023/06/15 12:41:13;;;;;;;;;;;;;;;29.89;19.12;99678.63;5263949;27;33099;-84
2023/06/15 12:43:45;;;;;;;;;;;;;;;30.27;18.82;99687.38;5299623;27;33365;-84
2023/06/15 12:46:12;;;;;;;;;;;;;;;30.33;19.42;99681.13;5281478;27;33431;-85
2023/06/15 12:48:40;;;;;;;;;;;;;;;30.15;19.96;99680.81;5301411;27;33343;-85
2023/06/15 12:51:08;;;;;;;;;;;;;;;29.74;19.88;99677.88;5301563;27;34856;-85
2023/06/15 12:53:37;;;;;;;;;;;;;;;29.79;20.27;99670.78;5301914;27;34253;-85
2023/06/15 12:56:05;;;;;;;;;;;;;;;30.23;20.97;99677.06;5300852;27;34247;-86
2023/06/15 12:58:34;;;;;;;;;;;;;;;30.12;20.85;99670.25;5283336;27;33633;-85